createdAt,value
2023-05-18T00:01:22.141Z,4.70
2023-05-18T00:03:50.275Z,4.60
2023-05-18T00:06:19.792Z,4.60
2023-05-18T00:08:47.866Z,4.70
2023-05-18T00:11:15.959Z,4.70
2023-05-18T00:13:51.462Z,4.70
2023-05-18T00:16:20.788Z,4.60
2023-05-18T00:18:54.687Z,4.60
2023-05-18T00:21:30.674Z,4.60
2023-05-18T00:24:01.957Z,4.60
2023-05-18T00:26:29.932Z,4.50
2023-05-18T00:29:00.398Z,4.50
2023-05-18T00:31:31.047Z,4.40
2023-05-18T00:33:59.054Z,4.40
2023-05-18T00:36:28.477Z,4.50
2023-05-18T00:38:56.533Z,4.50
2023-05-18T00:41:25.177Z,4.40
2023-05-18T00:43:53.264Z,4.40
2023-05-18T00:46:21.408Z,4.40
2023-05-18T00:48:50.791Z,4.30
2023-05-18T00:51:19.597Z,4.20
2023-05-18T00:53:49.111Z,4.20
2023-05-18T00:56:17.230Z,4.10
2023-05-18T00:58:47.785Z,4.10
2023-05-18T01:01:17.835Z,4.10
2023-05-18T01:03:45.925Z,4.10
2023-05-18T01:06:14.818Z,4.10
2023-05-18T01:08:44.013Z,4.00
2023-05-18T01:11:27.813Z,4.00
2023-05-18T01:14:02.475Z,4.00
2023-05-18T01:16:37.303Z,3.90
2023-05-18T01:19:24.508Z,3.90
2023-05-18T01:21:58.796Z,3.90
2023-05-18T01:24:36.413Z,3.80
2023-05-18T01:27:09.038Z,3.80
2023-05-18T01:29:37.595Z,3.90
2023-05-18T01:32:08.487Z,3.90
2023-05-18T01:34:36.431Z,3.80
2023-05-18T01:37:04.497Z,3.70
2023-05-18T01:39:32.569Z,3.70
2023-05-18T01:42:07.626Z,3.60
2023-05-18T01:44:42.177Z,3.60
2023-05-18T01:47:13.521Z,3.60
2023-05-18T01:49:49.116Z,3.60
2023-05-18T01:52:20.547Z,3.50
2023-05-18T01:54:55.098Z,3.50
2023-05-18T01:57:28.353Z,3.50
2023-05-18T01:59:59.998Z,3.50
2023-05-18T02:02:28.382Z,3.50
2023-05-18T02:04:56.708Z,3.50
2023-05-18T02:07:24.763Z,3.60
2023-05-18T02:09:52.778Z,3.60
2023-05-18T02:12:20.802Z,3.60
2023-05-18T02:14:48.824Z,3.60
2023-05-18T02:17:18.142Z,3.60
2023-05-18T02:19:46.134Z,3.60
2023-05-18T02:22:14.174Z,3.60
2023-05-18T02:24:42.181Z,3.70
2023-05-18T02:27:10.194Z,3.80
2023-05-18T02:29:38.213Z,3.90
2023-05-18T02:32:06.735Z,3.90
2023-05-18T02:34:38.263Z,3.90
2023-05-18T02:37:06.474Z,3.90
2023-05-18T02:39:34.524Z,4.00
2023-05-18T02:42:02.739Z,4.00
2023-05-18T02:44:30.978Z,4.00
2023-05-18T02:46:59.026Z,4.00
2023-05-18T02:49:26.996Z,4.10
2023-05-18T02:51:56.368Z,4.10
2023-05-18T02:54:24.425Z,4.10
2023-05-18T02:56:56.856Z,4.00
2023-05-18T02:59:24.965Z,3.90
2023-05-18T03:01:53.886Z,3.70
2023-05-18T03:04:25.849Z,3.60
2023-05-18T03:06:54.159Z,3.50
2023-05-18T03:09:23.662Z,3.50
2023-05-18T03:11:51.765Z,3.40
2023-05-18T03:14:19.752Z,3.40
2023-05-18T03:16:48.109Z,3.30
2023-05-18T03:19:16.364Z,3.30
2023-05-18T03:21:44.388Z,3.30
2023-05-18T03:24:14.927Z,3.30
2023-05-18T03:26:45.328Z,3.30
2023-05-18T03:29:13.715Z,3.40
2023-05-18T03:31:42.141Z,3.50
2023-05-18T03:34:10.149Z,3.70
2023-05-18T03:36:38.505Z,3.70
2023-05-18T03:39:07.572Z,3.70
2023-05-18T03:41:35.586Z,3.80
2023-05-18T03:44:05.268Z,3.80
2023-05-18T03:46:33.773Z,3.90
2023-05-18T03:49:04.832Z,4.00
2023-05-18T03:51:33.192Z,4.10
2023-05-18T03:54:01.269Z,4.10
2023-05-18T03:56:31.257Z,4.10
2023-05-18T03:59:00.211Z,4.20
2023-05-18T04:01:30.377Z,4.10
2023-05-18T04:03:58.611Z,4.10
2023-05-18T04:06:27.092Z,4.20
2023-05-18T04:08:55.271Z,4.30
2023-05-18T04:11:23.423Z,4.30
2023-05-18T04:13:52.083Z,4.40
2023-05-18T04:16:21.933Z,4.50
2023-05-18T04:18:51.567Z,4.60
2023-05-18T04:21:19.635Z,4.70
2023-05-18T04:23:49.212Z,4.70
2023-05-18T04:26:20.017Z,4.90
2023-05-18T04:28:48.238Z,4.90
2023-05-18T04:31:17.814Z,5.30
2023-05-18T04:33:48.891Z,6.10
2023-05-18T04:36:21.419Z,6.60
2023-05-18T04:38:50.855Z,7.60
2023-05-18T04:41:20.606Z,8.20
2023-05-18T04:43:50.235Z,8.80
2023-05-18T04:46:18.351Z,9.00
2023-05-18T04:48:50.138Z,9.60
2023-05-18T04:51:22.127Z,9.90
2023-05-18T04:53:51.192Z,10.10
2023-05-18T04:56:20.598Z,10.30
2023-05-18T04:58:49.166Z,10.80
2023-05-18T05:01:17.859Z,11.20
2023-05-18T05:03:46.570Z,11.40
2023-05-18T05:06:15.839Z,11.50
2023-05-18T05:08:46.498Z,10.70
2023-05-18T05:11:14.518Z,11.50
2023-05-18T05:13:42.530Z,11.30
2023-05-18T05:16:10.657Z,11.60
2023-05-18T05:18:38.730Z,11.50
2023-05-18T05:21:07.292Z,11.70
2023-05-18T05:23:35.311Z,11.90
2023-05-18T05:26:05.137Z,12.50
2023-05-18T05:28:33.192Z,12.30
2023-05-18T05:31:03.990Z,12.70
2023-05-18T05:33:32.099Z,12.70
2023-05-18T05:36:00.149Z,12.50
2023-05-18T05:38:28.120Z,12.60
2023-05-18T05:40:56.107Z,12.70
2023-05-18T05:43:25.809Z,12.50
2023-05-18T05:45:53.891Z,12.30
2023-05-18T05:48:22.061Z,12.60
2023-05-18T05:50:50.079Z,12.90
2023-05-18T05:53:19.814Z,13.10
2023-05-18T05:55:47.943Z,13.50
2023-05-18T05:58:15.944Z,14.50
2023-05-18T06:00:51.943Z,14.80
2023-05-18T06:03:20.082Z,16.00
2023-05-18T06:05:48.142Z,16.30
2023-05-18T06:08:17.025Z,17.50
2023-05-18T06:10:45.201Z,17.70
2023-05-18T06:13:13.161Z,18.60
2023-05-18T06:15:41.154Z,18.30
2023-05-18T06:18:12.197Z,18.00
2023-05-18T06:20:41.625Z,17.00
2023-05-18T06:23:09.705Z,17.30
2023-05-18T06:25:38.171Z,17.40
2023-05-18T06:28:06.430Z,18.30
2023-05-18T06:30:34.677Z,18.00
2023-05-18T06:33:02.824Z,18.60
2023-05-18T06:35:32.329Z,18.50
2023-05-18T06:38:00.638Z,17.80
2023-05-18T06:40:28.828Z,19.20
2023-05-18T06:42:56.871Z,18.40
2023-05-18T06:45:24.859Z,17.10
2023-05-18T06:47:52.935Z,16.80
2023-05-18T06:50:21.365Z,16.40
2023-05-18T06:52:51.480Z,15.80
2023-05-18T06:55:20.040Z,16.30
2023-05-18T06:57:48.069Z,15.30
2023-05-18T07:00:16.868Z,16.20
2023-05-18T07:02:45.793Z,16.40
2023-05-18T07:05:14.966Z,16.40
2023-05-18T07:07:43.036Z,15.90
2023-05-18T07:10:12.688Z,15.80
2023-05-18T07:12:40.748Z,16.20
2023-05-18T07:15:09.560Z,15.80
2023-05-18T07:17:37.637Z,15.90
2023-05-18T07:20:07.173Z,15.20
2023-05-18T07:22:35.242Z,16.00
2023-05-18T07:25:03.374Z,16.90
2023-05-18T07:27:33.274Z,17.30
2023-05-18T07:30:01.321Z,17.60
2023-05-18T07:32:29.335Z,17.40
2023-05-18T07:34:57.354Z,17.30
2023-05-18T07:37:25.998Z,17.70
2023-05-18T07:39:54.053Z,17.20
2023-05-18T07:42:22.184Z,16.70
2023-05-18T07:44:52.257Z,17.10
2023-05-18T07:47:22.232Z,16.90
2023-05-18T07:49:50.534Z,16.30
2023-05-18T07:52:18.645Z,15.70
2023-05-18T07:54:46.656Z,16.40
2023-05-18T07:57:14.751Z,15.80
2023-05-18T07:59:42.758Z,15.30
2023-05-18T08:02:12.443Z,15.40
2023-05-18T08:04:40.735Z,15.90
2023-05-18T08:07:09.032Z,15.90
2023-05-18T08:09:37.033Z,15.90
2023-05-18T08:12:05.611Z,15.80
2023-05-18T08:14:33.688Z,15.30
2023-05-18T08:17:01.752Z,15.70
2023-05-18T08:19:31.157Z,15.20
2023-05-18T08:21:59.276Z,15.10
2023-05-18T08:24:27.376Z,15.10
2023-05-18T08:26:55.399Z,14.80
2023-05-18T08:29:23.450Z,14.50
2023-05-18T08:31:52.742Z,14.00
2023-05-18T08:34:20.804Z,13.70
2023-05-18T08:36:50.350Z,13.50
2023-05-18T08:39:18.348Z,13.60
2023-05-18T08:41:55.782Z,13.80
2023-05-18T08:44:27.273Z,14.00
2023-05-18T08:46:57.000Z,14.30
2023-05-18T08:49:27.945Z,15.10
2023-05-18T08:52:01.618Z,15.50
2023-05-18T08:54:32.290Z,15.30
2023-05-18T08:57:00.558Z,15.80
2023-05-18T08:59:32.628Z,15.60
2023-05-18T09:02:01.288Z,15.50
2023-05-18T09:04:29.799Z,15.30
2023-05-18T09:07:02.641Z,15.20
2023-05-18T09:09:31.056Z,15.00
2023-05-18T09:11:59.686Z,15.10
2023-05-18T09:14:27.764Z,15.00
2023-05-18T09:16:56.425Z,14.80
2023-05-18T09:19:25.168Z,14.50
2023-05-18T09:21:53.394Z,14.40
2023-05-18T09:24:24.924Z,14.70
2023-05-18T09:26:53.176Z,14.80
2023-05-18T09:29:22.598Z,15.10
2023-05-18T09:31:51.879Z,15.50
2023-05-18T09:34:19.956Z,15.90
2023-05-18T09:36:49.507Z,16.10
2023-05-18T09:39:17.560Z,16.20
2023-05-18T09:41:46.904Z,15.80
2023-05-18T09:44:15.208Z,16.00
2023-05-18T09:46:43.250Z,15.80
2023-05-18T09:49:11.737Z,15.80
2023-05-18T09:51:40.307Z,15.90
2023-05-18T09:54:10.423Z,16.20
2023-05-18T09:56:39.754Z,16.10
2023-05-18T09:59:13.534Z,15.50
2023-05-18T10:01:57.467Z,15.30
2023-05-18T10:04:36.486Z,15.10
2023-05-18T10:07:09.944Z,15.00
2023-05-18T10:09:37.897Z,15.00
2023-05-18T10:12:12.702Z,15.00
2023-05-18T10:14:44.394Z,14.80
2023-05-18T10:17:15.652Z,14.80
2023-05-18T10:19:46.573Z,14.90
2023-05-18T10:22:17.958Z,15.30
2023-05-18T10:24:50.929Z,15.50
2023-05-18T10:27:21.858Z,15.70
2023-05-18T10:29:52.645Z,15.70
2023-05-18T10:32:24.230Z,15.60
2023-05-18T10:34:54.297Z,15.70
2023-05-18T10:37:24.591Z,15.80
2023-05-18T10:39:53.346Z,15.50
2023-05-18T10:42:23.259Z,15.20
2023-05-18T10:44:54.593Z,15.40
2023-05-18T10:47:30.485Z,15.60
2023-05-18T10:50:00.916Z,16.00
2023-05-18T10:52:32.022Z,16.20
2023-05-18T10:55:01.019Z,16.20
2023-05-18T10:57:35.902Z,16.40
2023-05-18T11:00:09.365Z,17.00
2023-05-18T11:02:40.330Z,16.90
2023-05-18T11:05:09.676Z,16.80
2023-05-18T11:07:38.279Z,16.50
2023-05-18T11:10:11.189Z,16.10
2023-05-18T11:12:39.667Z,16.10
2023-05-18T11:15:10.212Z,16.00
2023-05-18T11:17:38.291Z,16.00
2023-05-18T11:20:14.203Z,15.90
2023-05-18T11:22:48.164Z,16.20
2023-05-18T11:25:38.827Z,16.30
2023-05-18T11:28:09.718Z,16.30
2023-05-18T11:30:51.109Z,16.60
2023-05-18T11:33:24.478Z,16.80
2023-05-18T11:36:14.721Z,16.60
2023-05-18T11:38:54.466Z,16.60
2023-05-18T11:41:34.262Z,17.00
2023-05-18T11:44:18.082Z,16.70
2023-05-18T11:46:56.100Z,16.40
2023-05-18T11:49:26.300Z,16.40
2023-05-18T11:52:17.025Z,16.50
2023-05-18T11:54:47.950Z,16.60
2023-05-18T11:57:18.583Z,16.70
2023-05-18T11:59:48.108Z,17.10
2023-05-18T12:02:22.906Z,17.40
2023-05-18T12:04:54.082Z,17.00
2023-05-18T12:07:23.569Z,17.00
2023-05-18T12:09:52.160Z,17.20
2023-05-18T12:12:21.013Z,17.20
2023-05-18T12:14:56.880Z,17.20
2023-05-18T12:17:39.200Z,17.30
2023-05-18T12:20:09.271Z,17.40
2023-05-18T12:22:37.388Z,17.40
2023-05-18T12:25:05.998Z,17.40
2023-05-18T12:27:39.994Z,17.30
2023-05-18T12:30:11.886Z,17.10
2023-05-18T12:32:45.651Z,16.80
2023-05-18T12:35:13.768Z,16.40
2023-05-18T12:37:46.128Z,16.30
2023-05-18T12:40:16.394Z,16.30
2023-05-18T12:42:53.954Z,16.40
2023-05-18T12:45:24.778Z,16.30
2023-05-18T12:47:55.629Z,16.40
2023-05-18T12:50:25.072Z,16.20
2023-05-18T12:52:53.645Z,16.30
2023-05-18T12:55:22.929Z,16.50
2023-05-18T12:58:01.772Z,16.70
2023-05-18T13:00:33.884Z,16.80
2023-05-18T13:03:13.561Z,16.80
2023-05-18T13:05:44.829Z,16.60
2023-05-18T13:08:15.743Z,16.30
2023-05-18T13:10:45.732Z,16.40
2023-05-18T13:13:16.942Z,16.50
2023-05-18T13:15:45.739Z,16.50
2023-05-18T13:18:15.557Z,16.70
2023-05-18T13:20:48.282Z,16.90
2023-05-18T13:23:17.624Z,17.10
2023-05-18T13:25:46.372Z,17.20
2023-05-18T13:28:19.552Z,17.20
2023-05-18T13:30:49.116Z,16.80
2023-05-18T13:33:19.360Z,16.40
2023-05-18T13:35:50.146Z,16.30
2023-05-18T13:38:18.324Z,16.40
2023-05-18T13:40:47.009Z,16.70
2023-05-18T13:43:15.314Z,17.10
2023-05-18T13:45:44.643Z,17.40
2023-05-18T13:48:12.940Z,17.50
2023-05-18T13:50:42.535Z,17.40
2023-05-18T13:53:10.754Z,17.10
2023-05-18T13:55:38.926Z,16.90
2023-05-18T13:58:07.022Z,16.90
2023-05-18T14:00:36.456Z,16.60
2023-05-18T14:03:05.076Z,16.60
2023-05-18T14:05:33.253Z,16.80
2023-05-18T14:08:02.774Z,17.20
2023-05-18T14:10:31.252Z,17.50
2023-05-18T14:12:59.460Z,17.30
2023-05-18T14:15:27.486Z,17.20
2023-05-18T14:17:55.583Z,17.10
2023-05-18T14:20:23.737Z,16.90
2023-05-18T14:22:51.763Z,16.60
2023-05-18T14:25:21.250Z,16.30
2023-05-18T14:27:49.227Z,16.10
2023-05-18T14:30:17.286Z,15.90
2023-05-18T14:32:45.491Z,15.90
2023-05-18T14:35:13.653Z,15.90
2023-05-18T14:37:41.866Z,16.00
2023-05-18T14:40:11.036Z,15.80
2023-05-18T14:42:40.727Z,15.90
2023-05-18T14:45:10.056Z,15.90
2023-05-18T14:47:41.478Z,15.90
2023-05-18T14:50:10.100Z,15.80
2023-05-18T14:52:38.206Z,15.90
2023-05-18T14:55:06.849Z,15.70
2023-05-18T14:57:34.987Z,15.60
2023-05-18T15:00:05.108Z,15.40
2023-05-18T15:02:33.551Z,15.50
2023-05-18T15:05:01.655Z,15.50
2023-05-18T15:07:29.888Z,15.60
2023-05-18T15:09:58.087Z,15.60
2023-05-18T15:12:26.477Z,15.50
2023-05-18T15:14:54.509Z,15.30
2023-05-18T15:17:23.915Z,15.20
2023-05-18T15:19:51.998Z,15.00
2023-05-18T15:22:20.012Z,14.90
2023-05-18T15:24:48.054Z,14.80
2023-05-18T15:27:16.569Z,14.70
2023-05-18T15:29:49.249Z,14.70
2023-05-18T15:32:17.579Z,14.60
2023-05-18T15:34:47.042Z,14.60
2023-05-18T15:37:15.114Z,14.60
2023-05-18T15:39:43.066Z,14.60
2023-05-18T15:42:11.101Z,14.60
2023-05-18T15:44:39.247Z,14.80
2023-05-18T15:47:07.745Z,14.70
2023-05-18T15:49:35.870Z,14.80
2023-05-18T15:52:05.675Z,14.70
2023-05-18T15:54:33.676Z,14.70
2023-05-18T15:57:01.879Z,14.70
2023-05-18T15:59:30.131Z,14.70
2023-05-18T16:01:58.145Z,14.60
2023-05-18T16:04:26.186Z,14.60
2023-05-18T16:06:54.169Z,14.60
2023-05-18T16:09:23.596Z,14.60
2023-05-18T16:11:51.640Z,14.60
2023-05-18T16:14:19.646Z,14.60
2023-05-18T16:16:47.724Z,14.60
2023-05-18T16:19:15.998Z,14.50
2023-05-18T16:21:44.093Z,14.50
2023-05-18T16:24:12.127Z,14.50
2023-05-18T16:26:41.511Z,14.50
2023-05-18T16:29:09.834Z,14.60
2023-05-18T16:31:38.370Z,14.60
2023-05-18T16:34:06.453Z,14.60
2023-05-18T16:36:36.390Z,14.60
2023-05-18T16:39:04.643Z,14.60
2023-05-18T16:41:32.669Z,14.60
2023-05-18T16:44:02.340Z,14.50
2023-05-18T16:46:30.490Z,14.40
2023-05-18T16:48:58.642Z,14.40
2023-05-18T16:51:27.582Z,14.50
2023-05-18T16:53:55.707Z,14.50
2023-05-18T16:56:25.187Z,14.60
2023-05-18T16:58:53.863Z,14.60
2023-05-18T17:01:28.446Z,14.60
2023-05-18T17:03:57.333Z,14.60
2023-05-18T17:06:25.900Z,14.60
2023-05-18T17:08:57.986Z,14.60
2023-05-18T17:11:27.743Z,14.60
2023-05-18T17:13:57.619Z,14.60
2023-05-18T17:16:28.648Z,14.60
2023-05-18T17:18:57.726Z,14.60
2023-05-18T17:21:28.180Z,14.60
2023-05-18T17:23:56.400Z,14.50
2023-05-18T17:26:25.487Z,14.50
2023-05-18T17:28:54.165Z,14.50
2023-05-18T17:31:22.270Z,14.50
2023-05-18T17:33:51.695Z,14.40
2023-05-18T17:36:19.778Z,14.30
2023-05-18T17:38:47.987Z,14.20
2023-05-18T17:41:16.242Z,14.30
2023-05-18T17:43:44.254Z,14.30
2023-05-18T17:46:12.267Z,14.30
2023-05-18T17:48:40.786Z,14.30
2023-05-18T17:51:10.179Z,14.20
2023-05-18T17:53:42.075Z,14.20
2023-05-18T17:56:10.961Z,14.10
2023-05-18T17:58:39.729Z,14.10
2023-05-18T18:01:08.763Z,14.00
2023-05-18T18:03:37.816Z,14.00
2023-05-18T18:06:06.468Z,14.00
2023-05-18T18:08:36.723Z,14.00
2023-05-18T18:11:07.676Z,14.00
2023-05-18T18:13:37.673Z,14.00
2023-05-18T18:16:06.470Z,13.90
2023-05-18T18:18:36.604Z,13.80
2023-05-18T18:21:05.477Z,13.80
2023-05-18T18:23:35.425Z,13.80
2023-05-18T18:26:04.369Z,13.70
2023-05-18T18:28:32.933Z,13.80
2023-05-18T18:31:03.642Z,13.70
2023-05-18T18:33:32.743Z,13.60
2023-05-18T18:36:01.419Z,13.70
2023-05-18T18:38:29.765Z,13.60
2023-05-18T18:41:01.981Z,13.60
2023-05-18T18:43:30.164Z,13.50
2023-05-18T18:45:58.467Z,13.40
2023-05-18T18:48:27.267Z,13.40
2023-05-18T18:50:55.431Z,13.30
2023-05-18T18:53:23.642Z,13.30
2023-05-18T18:56:04.489Z,13.30
2023-05-18T18:58:32.576Z,13.30
2023-05-18T19:01:00.655Z,13.20
2023-05-18T19:03:29.312Z,13.20
2023-05-18T19:05:57.669Z,13.10
2023-05-18T19:08:25.817Z,13.10
2023-05-18T19:10:53.912Z,13.10
2023-05-18T19:13:23.444Z,13.10
2023-05-18T19:15:51.657Z,13.10
2023-05-18T19:18:19.849Z,13.00
2023-05-18T19:20:47.906Z,13.00
2023-05-18T19:23:16.192Z,13.00
2023-05-18T19:25:44.374Z,13.00
2023-05-18T19:28:12.411Z,13.00
2023-05-18T19:30:41.870Z,13.00
2023-05-18T19:33:09.890Z,12.90
2023-05-18T19:35:38.015Z,12.90
2023-05-18T19:38:06.099Z,12.90
2023-05-18T19:40:34.327Z,12.80
2023-05-18T19:43:05.130Z,12.80
2023-05-18T19:45:33.717Z,12.80
2023-05-18T19:48:03.483Z,12.80
2023-05-18T19:50:31.535Z,12.80
2023-05-18T19:52:59.695Z,12.70
2023-05-18T19:55:27.920Z,12.70
2023-05-18T19:57:56.016Z,12.60
2023-05-18T20:00:25.553Z,12.70
2023-05-18T20:02:53.632Z,12.70
2023-05-18T20:05:25.458Z,12.70
2023-05-18T20:07:53.544Z,12.70
2023-05-18T20:10:21.639Z,12.70
2023-05-18T20:12:49.660Z,12.60
2023-05-18T20:15:18.865Z,12.60
2023-05-18T20:17:47.012Z,12.60
2023-05-18T20:20:15.087Z,12.50
2023-05-18T20:22:44.535Z,12.50
2023-05-18T20:25:12.942Z,12.50
2023-05-18T20:27:43.384Z,12.40
2023-05-18T20:30:11.734Z,12.40
2023-05-18T20:32:39.738Z,12.40
2023-05-18T20:35:08.174Z,12.40
2023-05-18T20:37:36.169Z,12.40
2023-05-18T20:40:09.420Z,12.40
2023-05-18T20:42:40.783Z,12.40
2023-05-18T20:45:10.139Z,12.40
2023-05-18T20:47:38.261Z,12.40
2023-05-18T20:50:07.359Z,12.40
2023-05-18T20:52:35.398Z,12.40
2023-05-18T20:55:03.408Z,12.40
2023-05-18T20:57:32.891Z,12.40
2023-05-18T21:00:00.945Z,12.30
2023-05-18T21:02:29.036Z,12.30
2023-05-18T21:04:57.870Z,12.20
2023-05-18T21:07:26.028Z,12.20
2023-05-18T21:09:54.015Z,12.20
2023-05-18T21:12:22.136Z,12.10
2023-05-18T21:14:51.551Z,12.10
2023-05-18T21:17:23.156Z,12.10
2023-05-18T21:19:51.666Z,12.10
2023-05-18T21:22:19.836Z,12.10
2023-05-18T21:24:49.568Z,12.10
2023-05-18T21:27:17.845Z,12.10
2023-05-18T21:29:45.889Z,12.20
2023-05-18T21:32:15.518Z,12.20
2023-05-18T21:34:43.878Z,12.20
2023-05-18T21:37:12.205Z,12.20
2023-05-18T21:39:42.046Z,12.10
2023-05-18T21:42:10.162Z,12.10
2023-05-18T21:44:39.151Z,12.00
2023-05-18T21:47:07.420Z,12.10
2023-05-18T21:49:37.017Z,12.10
2023-05-18T21:52:06.823Z,12.00
2023-05-18T21:54:37.744Z,12.00
2023-05-18T21:57:06.201Z,12.10
2023-05-18T21:59:34.355Z,12.00
2023-05-18T22:02:02.495Z,12.00
2023-05-18T22:04:30.637Z,12.00
2023-05-18T22:07:00.737Z,12.00
2023-05-18T22:09:28.773Z,12.00
2023-05-18T22:11:57.552Z,11.90
2023-05-18T22:14:25.576Z,11.90
2023-05-18T22:16:53.718Z,11.80
2023-05-18T22:19:23.485Z,11.80
2023-05-18T22:21:52.252Z,11.80
2023-05-18T22:24:21.799Z,11.80
2023-05-18T22:26:57.433Z,11.80
2023-05-18T22:29:25.640Z,11.80
2023-05-18T22:31:53.679Z,11.80
2023-05-18T22:34:21.762Z,11.80
2023-05-18T22:36:49.747Z,11.80
2023-05-18T22:39:18.118Z,11.80
2023-05-18T22:41:47.533Z,11.80
2023-05-18T22:44:15.640Z,11.80
2023-05-18T22:46:44.062Z,11.80
2023-05-18T22:49:12.085Z,11.80
2023-05-18T22:51:40.829Z,11.70
2023-05-18T22:54:08.815Z,11.70
2023-05-18T22:56:36.825Z,11.70
2023-05-18T22:59:07.054Z,11.70
2023-05-18T23:01:37.634Z,11.70
2023-05-18T23:04:06.346Z,11.60
2023-05-18T23:06:34.565Z,11.60
2023-05-18T23:09:02.580Z,11.70
2023-05-18T23:11:34.995Z,11.60
2023-05-18T23:14:03.145Z,11.60
2023-05-18T23:16:32.647Z,11.60
2023-05-18T23:19:01.680Z,11.70
2023-05-18T23:21:31.022Z,11.60
2023-05-18T23:23:59.754Z,11.60
2023-05-18T23:26:27.846Z,11.60
2023-05-18T23:28:55.806Z,11.50
2023-05-18T23:31:23.859Z,11.60
2023-05-18T23:33:53.888Z,11.60
2023-05-18T23:36:22.997Z,11.50
2023-05-18T23:38:52.828Z,11.50
2023-05-18T23:41:21.921Z,11.50
2023-05-18T23:43:50.288Z,11.40
2023-05-18T23:46:18.927Z,11.40
2023-05-18T23:48:47.430Z,11.40
2023-05-18T23:51:18.897Z,11.30
2023-05-18T23:53:48.178Z,11.30
2023-05-18T23:56:16.861Z,11.30
2023-05-18T23:58:46.716Z,11.30
